Efland, NC

12:17 AM EDT on September 22, 2014 (GMT -0400)
Raleigh-Durham International | Change Station
CLOSE
Current Station
Airport
Location: Raleigh-Durham Airport,
Elevation: 436 ft
Nearby Weather Stations

Elev 436 ft 35.89 °N, 78.78 °W | Updated 26 minutes ago

Mostly Cloudy
Mostly Cloudy
72 °F
Feels Like 72 °F
N
15
Wind Variable Wind from SW
Gusts 21 mph

Today
High -- | Low -- °F
--% Chance of Precip.
Yesterday
High -- | Low -- °F
Precip. -- in
7:04 AM 7:13 PM
Waning Crescent, 4% visible
Pressure 29.86 in
Visibility 5.0 miles
Clouds Scattered Clouds 5000 ft
Mostly Cloudy 7500 ft
Overcast 9500 ft
Dew Point 67 °F
Humidity 84%
Rainfall 0.03 in
Snow Depth Not available.
UV 0 out of 12
Pollen 6.00 out of 12
Ozone Good
PM2.5 Good
Flu Activity Not available.
METAR KRDU 220351Z 22013G18KT 5SM +RA BR SCT050 BKN075 OVC095 22/19 A2987 RMK AO2 RAE12B48 SLP111 P0000 T02220194 $

More Conditions Fewer Conditions

Pressure 29.86 in
Visibility 5.0 miles
Clouds Scattered Clouds 5000 ft
Mostly Cloudy 7500 ft
Overcast 9500 ft
Dew Point 67 °F
Humidity 84%
Rainfall 0.03 in
Snow Depth Not available.
UV 0 out of 12
Pollen 6.00 out of 12
Ozone Good
PM2.5 Good
Flu Activity Not available.
METAR KRDU 220351Z 22013G18KT 5SM +RA BR SCT050 BKN075 OVC095 22/19 A2987 RMK AO2 RAE12B48 SLP111 P0000 T02220194 $

More Conditions Fewer Conditions

10-Day Weather Forecast

Almanac

Astronomy

Sep. 22, 2014 Rise Set
Actual Time 7:04 AM EDT 7:13 PM EDT
Civil Twilight 6:39 AM EDT 7:39 PM EDT
Nautical Twilight 6:09 AM EDT 8:09 PM EDT
Astronomical Twilight 5:38 AM EDT 8:39 PM EDT
Moon 5:33 AM EDT 6:19 PM EDT
Length of Visible Light 13h 00m
Length of Day
12h 08m
Tomorrow will be 2m 16s shorter.
Waning Crescent, 4% of the Moon is Illuminated
Today
Waning Crescent
Sep 24
New
Oct 1
First Quarter
Oct 8
Full
Oct 15
Last Quarter

Yesterday's Extremes

State Highs State Lows

Community

WunderPhotos

Upload Photos

1,755,383 photos uploaded!

Nearby

Air Quality

  Air Quality AQ Index Pollutant
Yesterday Good
OZONE
Yesterday Good
PM2.5
Current Good
PM2.5
Current Good
OZONE
Sunday Good
OZONE
Sunday Good
PM2.5
Monday Good
PM2.5
Monday Good
OZONE
Tuesday Good
PM2.5
Tuesday Good
OZONE
Wednesday Good
PM2.5
Wednesday Good
OZONE

Snow Depth

Station Depth Elevation
No new snow has been reported.

Earthquake Activity

City Distance Mag. Time & Date
No recent earthquake activity has been reported nearby.
Minimum magnitude displayed is 2.5.

Coastal Water Temperatures

Place Temperature
No Stations Reporting

Nearby Weather Stations